sensor_id;sensor_type;location;lat;lon;timestamp;P1;durP1;ratioP1;P2;durP2;ratioP2
51925;SDS011;37952;51.938;15.480;2023-07-31T00:01:31;1.80;;;1.20;;
51925;SDS011;37952;51.938;15.480;2023-07-31T00:04:34;1.30;;;1.20;;
51925;SDS011;37952;51.938;15.480;2023-07-31T00:07:37;3.50;;;1.20;;
51925;SDS011;37952;51.938;15.480;2023-07-31T00:10:40;1.60;;;1.20;;
51925;SDS011;37952;51.938;15.480;2023-07-31T00:13:43;3.20;;;2.00;;
51925;SDS011;37952;51.938;15.480;2023-07-31T00:16:46;2.00;;;1.40;;
51925;SDS011;37952;51.938;15.480;2023-07-31T00:19:51;1.60;;;1.30;;
51925;SDS011;37952;51.938;15.480;2023-07-31T00:22:54;3.10;;;1.10;;
51925;SDS011;37952;51.938;15.480;2023-07-31T00:25:57;1.40;;;1.30;;
51925;SDS011;37952;51.938;15.480;2023-07-31T00:29:00;1.10;;;1.10;;
51925;SDS011;37952;51.938;15.480;2023-07-31T00:32:03;1.20;;;1.10;;
51925;SDS011;37952;51.938;15.480;2023-07-31T00:35:11;1.10;;;1.00;;
51925;SDS011;37952;51.938;15.480;2023-07-31T00:38:14;0.80;;;0.80;;
51925;SDS011;37952;51.938;15.480;2023-07-31T00:41:17;1.10;;;1.00;;
51925;SDS011;37952;51.938;15.480;2023-07-31T00:44:20;3.10;;;1.10;;
51925;SDS011;37952;51.938;15.480;2023-07-31T00:47:23;1.20;;;1.10;;
51925;SDS011;37952;51.938;15.480;2023-07-31T00:50:26;3.30;;;1.20;;
51925;SDS011;37952;51.938;15.480;2023-07-31T00:53:30;1.30;;;1.20;;
51925;SDS011;37952;51.938;15.480;2023-07-31T00:56:33;1.30;;;1.20;;
51925;SDS011;37952;51.938;15.480;2023-07-31T00:59:36;2.70;;;0.90;;
51925;SDS011;37952;51.938;15.480;2023-07-31T01:02:39;2.80;;;1.20;;
51925;SDS011;37952;51.938;15.480;2023-07-31T01:05:46;2.30;;;1.60;;
51925;SDS011;37952;51.938;15.480;2023-07-31T01:09:22;1.90;;;1.10;;
51925;SDS011;37952;51.938;15.480;2023-07-31T01:12:31;1.20;;;1.00;;
51925;SDS011;37952;51.938;15.480;2023-07-31T01:15:34;1.10;;;1.00;;
51925;SDS011;37952;51.938;15.480;2023-07-31T01:18:37;1.20;;;1.00;;
51925;SDS011;37952;51.938;15.480;2023-07-31T01:25:16;1.50;;;1.40;;
51925;SDS011;37952;51.938;15.480;2023-07-31T01:28:45;1.40;;;1.00;;
51925;SDS011;37952;51.938;15.480;2023-07-31T01:32:02;1.30;;;1.20;;
51925;SDS011;37952;51.938;15.480;2023-07-31T01:35:06;2.10;;;1.50;;
51925;SDS011;37952;51.938;15.480;2023-07-31T01:38:09;1.30;;;1.20;;
51925;SDS011;37952;51.938;15.480;2023-07-31T01:41:13;1.20;;;1.10;;
51925;SDS011;37952;51.938;15.480;2023-07-31T01:44:16;1.30;;;1.20;;
51925;SDS011;37952;51.938;15.480;2023-07-31T01:47:19;1.20;;;1.00;;
51925;SDS011;37952;51.938;15.480;2023-07-31T01:50:22;0.90;;;0.90;;
51925;SDS011;37952;51.938;15.480;2023-07-31T01:53:24;1.20;;;1.10;;
51925;SDS011;37952;51.938;15.480;2023-07-31T01:56:27;1.40;;;1.30;;
51925;SDS011;37952;51.938;15.480;2023-07-31T01:59:30;1.20;;;1.10;;
51925;SDS011;37952;51.938;15.480;2023-07-31T02:02:33;1.90;;;1.30;;
51925;SDS011;37952;51.938;15.480;2023-07-31T02:05:43;5.70;;;1.40;;
51925;SDS011;37952;51.938;15.480;2023-07-31T02:08:48;2.40;;;1.50;;
51925;SDS011;37952;51.938;15.480;2023-07-31T02:11:51;1.70;;;1.60;;
51925;SDS011;37952;51.938;15.480;2023-07-31T02:14:54;2.00;;;1.30;;
51925;SDS011;37952;51.938;15.480;2023-07-31T02:17:57;1.30;;;1.00;;
51925;SDS011;37952;51.938;15.480;2023-07-31T02:21:00;1.20;;;1.10;;
51925;SDS011;37952;51.938;15.480;2023-07-31T02:24:03;1.90;;;1.80;;
51925;SDS011;37952;51.938;15.480;2023-07-31T02:27:06;2.60;;;1.50;;
51925;SDS011;37952;51.938;15.480;2023-07-31T02:30:09;2.00;;;1.20;;
51925;SDS011;37952;51.938;15.480;2023-07-31T02:33:13;1.30;;;1.10;;
51925;SDS011;37952;51.938;15.480;2023-07-31T02:36:17;3.60;;;1.70;;
51925;SDS011;37952;51.938;15.480;2023-07-31T02:39:20;1.50;;;1.20;;
51925;SDS011;37952;51.938;15.480;2023-07-31T02:42:23;0.90;;;0.90;;
51925;SDS011;37952;51.938;15.480;2023-07-31T02:45:26;1.40;;;1.30;;
51925;SDS011;37952;51.938;15.480;2023-07-31T02:48:29;1.50;;;1.40;;
51925;SDS011;37952;51.938;15.480;2023-07-31T02:51:31;2.20;;;1.50;;
51925;SDS011;37952;51.938;15.480;2023-07-31T02:54:34;1.40;;;1.20;;
51925;SDS011;37952;51.938;15.480;2023-07-31T02:57:37;1.50;;;1.30;;
51925;SDS011;37952;51.938;15.480;2023-07-31T03:00:43;1.20;;;1.10;;
51925;SDS011;37952;51.938;15.480;2023-07-31T03:03:46;2.20;;;1.80;;
51925;SDS011;37952;51.938;15.480;2023-07-31T03:06:49;1.70;;;1.40;;
51925;SDS011;37952;51.938;15.480;2023-07-31T03:09:52;1.40;;;1.30;;
51925;SDS011;37952;51.938;15.480;2023-07-31T03:12:55;2.00;;;1.30;;
51925;SDS011;37952;51.938;15.480;2023-07-31T03:15:57;2.40;;;1.70;;
51925;SDS011;37952;51.938;15.480;2023-07-31T03:19:00;3.40;;;1.70;;
51925;SDS011;37952;51.938;15.480;2023-07-31T03:22:03;1.50;;;1.40;;
51925;SDS011;37952;51.938;15.480;2023-07-31T03:25:07;1.50;;;1.30;;
51925;SDS011;37952;51.938;15.480;2023-07-31T03:28:11;1.50;;;1.40;;
51925;SDS011;37952;51.938;15.480;2023-07-31T03:31:14;1.60;;;1.50;;
51925;SDS011;37952;51.938;15.480;2023-07-31T03:34:17;3.50;;;1.50;;
51925;SDS011;37952;51.938;15.480;2023-07-31T03:37:20;2.50;;;1.20;;
51925;SDS011;37952;51.938;15.480;2023-07-31T03:40:23;3.00;;;1.20;;
51925;SDS011;37952;51.938;15.480;2023-07-31T03:43:25;2.50;;;1.50;;
51925;SDS011;37952;51.938;15.480;2023-07-31T03:46:28;3.10;;;1.60;;
51925;SDS011;37952;51.938;15.480;2023-07-31T03:49:31;2.00;;;1.40;;
51925;SDS011;37952;51.938;15.480;2023-07-31T03:52:34;1.50;;;1.00;;
51925;SDS011;37952;51.938;15.480;2023-07-31T03:55:37;1.40;;;1.30;;
51925;SDS011;37952;51.938;15.480;2023-07-31T03:58:40;2.40;;;1.50;;
51925;SDS011;37952;51.938;15.480;2023-07-31T04:01:43;1.50;;;1.30;;
51925;SDS011;37952;51.938;15.480;2023-07-31T04:04:46;3.90;;;1.50;;
51925;SDS011;37952;51.938;15.480;2023-07-31T04:07:48;1.70;;;1.20;;
51925;SDS011;37952;51.938;15.480;2023-07-31T04:10:51;1.50;;;1.30;;
51925;SDS011;37952;51.938;15.480;2023-07-31T04:13:54;1.80;;;1.40;;
51925;SDS011;37952;51.938;15.480;2023-07-31T04:16:57;1.50;;;1.40;;
51925;SDS011;37952;51.938;15.480;2023-07-31T04:19:59;2.30;;;1.40;;
51925;SDS011;37952;51.938;15.480;2023-07-31T04:23:02;2.40;;;1.20;;
51925;SDS011;37952;51.938;15.480;2023-07-31T04:26:05;1.40;;;1.30;;
51925;SDS011;37952;51.938;15.480;2023-07-31T04:29:08;3.80;;;1.30;;
51925;SDS011;37952;51.938;15.480;2023-07-31T04:32:12;4.50;;;1.40;;
51925;SDS011;37952;51.938;15.480;2023-07-31T04:35:15;4.70;;;1.80;;
51925;SDS011;37952;51.938;15.480;2023-07-31T04:38:18;1.50;;;1.40;;
51925;SDS011;37952;51.938;15.480;2023-07-31T04:41:22;2.10;;;1.40;;
51925;SDS011;37952;51.938;15.480;2023-07-31T04:44:25;1.60;;;1.00;;
51925;SDS011;37952;51.938;15.480;2023-07-31T04:47:27;1.40;;;1.30;;
51925;SDS011;37952;51.938;15.480;2023-07-31T04:50:30;1.90;;;1.60;;
51925;SDS011;37952;51.938;15.480;2023-07-31T04:53:33;2.80;;;1.30;;
51925;SDS011;37952;51.938;15.480;2023-07-31T04:56:36;3.10;;;1.50;;
51925;SDS011;37952;51.938;15.480;2023-07-31T04:59:39;2.30;;;1.40;;
51925;SDS011;37952;51.938;15.480;2023-07-31T05:02:41;2.80;;;1.30;;
51925;SDS011;37952;51.938;15.480;2023-07-31T05:05:44;1.20;;;1.00;;
51925;SDS011;37952;51.938;15.480;2023-07-31T05:08:47;3.20;;;1.20;;
51925;SDS011;37952;51.938;15.480;2023-07-31T05:11:50;6.10;;;1.50;;
51925;SDS011;37952;51.938;15.480;2023-07-31T05:14:53;1.80;;;1.60;;
51925;SDS011;37952;51.938;15.480;2023-07-31T05:17:56;1.20;;;1.20;;
51925;SDS011;37952;51.938;15.480;2023-07-31T05:20:59;1.40;;;1.30;;
51925;SDS011;37952;51.938;15.480;2023-07-31T05:24:02;2.40;;;1.60;;
51925;SDS011;37952;51.938;15.480;2023-07-31T05:27:05;2.80;;;1.40;;
51925;SDS011;37952;51.938;15.480;2023-07-31T05:30:08;2.40;;;1.30;;
51925;SDS011;37952;51.938;15.480;2023-07-31T05:33:11;4.00;;;1.40;;
51925;SDS011;37952;51.938;15.480;2023-07-31T05:36:17;1.40;;;1.00;;
51925;SDS011;37952;51.938;15.480;2023-07-31T05:39:20;1.90;;;1.20;;
51925;SDS011;37952;51.938;15.480;2023-07-31T05:42:23;1.60;;;1.20;;
51925;SDS011;37952;51.938;15.480;2023-07-31T05:45:25;1.50;;;1.00;;
51925;SDS011;37952;51.938;15.480;2023-07-31T05:48:29;2.60;;;1.60;;
51925;SDS011;37952;51.938;15.480;2023-07-31T05:51:32;5.70;;;1.20;;
51925;SDS011;37952;51.938;15.480;2023-07-31T05:54:35;2.30;;;1.40;;
51925;SDS011;37952;51.938;15.480;2023-07-31T05:57:37;2.30;;;1.10;;
51925;SDS011;37952;51.938;15.480;2023-07-31T06:00:40;1.60;;;1.10;;
51925;SDS011;37952;51.938;15.480;2023-07-31T06:03:43;1.50;;;1.40;;
51925;SDS011;37952;51.938;15.480;2023-07-31T06:06:46;1.70;;;1.40;;
51925;SDS011;37952;51.938;15.480;2023-07-31T06:09:49;1.70;;;1.20;;
51925;SDS011;37952;51.938;15.480;2023-07-31T06:12:52;1.50;;;1.00;;
51925;SDS011;37952;51.938;15.480;2023-07-31T06:15:55;1.30;;;0.70;;
51925;SDS011;37952;51.938;15.480;2023-07-31T06:18:57;1.60;;;1.00;;
51925;SDS011;37952;51.938;15.480;2023-07-31T06:22:00;1.90;;;1.00;;
51925;SDS011;37952;51.938;15.480;2023-07-31T06:25:03;1.20;;;1.00;;
51925;SDS011;37952;51.938;15.480;2023-07-31T06:28:06;1.60;;;1.00;;
51925;SDS011;37952;51.938;15.480;2023-07-31T06:31:09;1.70;;;1.00;;
51925;SDS011;37952;51.938;15.480;2023-07-31T06:34:12;1.70;;;0.80;;
51925;SDS011;37952;51.938;15.480;2023-07-31T06:37:15;2.50;;;1.00;;
51925;SDS011;37952;51.938;15.480;2023-07-31T06:40:19;1.70;;;1.20;;
51925;SDS011;37952;51.938;15.480;2023-07-31T06:43:21;1.40;;;1.10;;
51925;SDS011;37952;51.938;15.480;2023-07-31T06:46:24;1.80;;;0.90;;
51925;SDS011;37952;51.938;15.480;2023-07-31T06:49:27;7.70;;;1.30;;
51925;SDS011;37952;51.938;15.480;2023-07-31T06:52:30;1.00;;;0.90;;
51925;SDS011;37952;51.938;15.480;2023-07-31T06:55:32;1.80;;;0.70;;
51925;SDS011;37952;51.938;15.480;2023-07-31T06:58:35;1.00;;;0.80;;
51925;SDS011;37952;51.938;15.480;2023-07-31T07:01:38;1.30;;;0.70;;
51925;SDS011;37952;51.938;15.480;2023-07-31T07:04:41;1.40;;;1.10;;
51925;SDS011;37952;51.938;15.480;2023-07-31T07:07:43;1.10;;;1.00;;
51925;SDS011;37952;51.938;15.480;2023-07-31T07:10:47;0.90;;;0.60;;
51925;SDS011;37952;51.938;15.480;2023-07-31T07:13:50;2.30;;;0.90;;
51925;SDS011;37952;51.938;15.480;2023-07-31T07:16:53;3.00;;;0.90;;
51925;SDS011;37952;51.938;15.480;2023-07-31T07:19:56;1.60;;;1.00;;
51925;SDS011;37952;51.938;15.480;2023-07-31T07:22:58;1.50;;;1.20;;
51925;SDS011;37952;51.938;15.480;2023-07-31T07:26:01;3.10;;;0.90;;
51925;SDS011;37952;51.938;15.480;2023-07-31T07:29:04;2.10;;;1.10;;
51925;SDS011;37952;51.938;15.480;2023-07-31T07:32:10;1.20;;;0.90;;
51925;SDS011;37952;51.938;15.480;2023-07-31T07:35:15;1.40;;;1.10;;
51925;SDS011;37952;51.938;15.480;2023-07-31T07:38:17;1.50;;;1.00;;
51925;SDS011;37952;51.938;15.480;2023-07-31T07:41:21;1.50;;;0.90;;
51925;SDS011;37952;51.938;15.480;2023-07-31T07:44:24;1.40;;;1.10;;
51925;SDS011;37952;51.938;15.480;2023-07-31T07:47:27;2.00;;;1.30;;
51925;SDS011;37952;51.938;15.480;2023-07-31T07:50:30;4.40;;;1.20;;
51925;SDS011;37952;51.938;15.480;2023-07-31T07:53:34;0.90;;;0.90;;
51925;SDS011;37952;51.938;15.480;2023-07-31T07:56:36;1.10;;;0.90;;
51925;SDS011;37952;51.938;15.480;2023-07-31T07:59:40;1.90;;;1.00;;
51925;SDS011;37952;51.938;15.480;2023-07-31T08:02:43;2.00;;;1.20;;
51925;SDS011;37952;51.938;15.480;2023-07-31T08:05:46;2.10;;;0.90;;
51925;SDS011;37952;51.938;15.480;2023-07-31T08:08:49;1.10;;;1.00;;
51925;SDS011;37952;51.938;15.480;2023-07-31T08:11:52;4.80;;;1.10;;
51925;SDS011;37952;51.938;15.480;2023-07-31T08:14:55;6.20;;;1.40;;
51925;SDS011;37952;51.938;15.480;2023-07-31T08:17:57;1.20;;;1.10;;
51925;SDS011;37952;51.938;15.480;2023-07-31T08:21:04;3.70;;;1.10;;
51925;SDS011;37952;51.938;15.480;2023-07-31T08:24:07;2.90;;;0.90;;
51925;SDS011;37952;51.938;15.480;2023-07-31T08:27:10;1.80;;;0.80;;
51925;SDS011;37952;51.938;15.480;2023-07-31T08:30:13;1.70;;;1.10;;
51925;SDS011;37952;51.938;15.480;2023-07-31T08:33:16;1.30;;;1.00;;
51925;SDS011;37952;51.938;15.480;2023-07-31T08:36:19;0.90;;;0.90;;
51925;SDS011;37952;51.938;15.480;2023-07-31T08:39:22;2.60;;;0.80;;
51925;SDS011;37952;51.938;15.480;2023-07-31T08:42:25;0.70;;;0.70;;
51925;SDS011;37952;51.938;15.480;2023-07-31T08:45:29;0.90;;;0.90;;
51925;SDS011;37952;51.938;15.480;2023-07-31T08:48:33;2.60;;;1.00;;
51925;SDS011;37952;51.938;15.480;2023-07-31T08:51:38;1.10;;;0.80;;
51925;SDS011;37952;51.938;15.480;2023-07-31T08:54:41;2.60;;;0.90;;
51925;SDS011;37952;51.938;15.480;2023-07-31T08:57:44;1.00;;;0.80;;
51925;SDS011;37952;51.938;15.480;2023-07-31T09:00:49;1.00;;;0.70;;
51925;SDS011;37952;51.938;15.480;2023-07-31T09:03:56;1.40;;;1.00;;
51925;SDS011;37952;51.938;15.480;2023-07-31T09:07:03;1.20;;;1.10;;
51925;SDS011;37952;51.938;15.480;2023-07-31T09:10:07;2.00;;;0.90;;
51925;SDS011;37952;51.938;15.480;2023-07-31T09:13:09;1.10;;;0.90;;
51925;SDS011;37952;51.938;15.480;2023-07-31T09:16:15;0.90;;;0.80;;
51925;SDS011;37952;51.938;15.480;2023-07-31T09:19:24;0.70;;;0.70;;
51925;SDS011;37952;51.938;15.480;2023-07-31T09:22:32;1.10;;;0.90;;
51925;SDS011;37952;51.938;15.480;2023-07-31T09:25:38;1.00;;;0.80;;
51925;SDS011;37952;51.938;15.480;2023-07-31T09:28:42;1.90;;;1.30;;
51925;SDS011;37952;51.938;15.480;2023-07-31T09:31:45;0.70;;;0.70;;
51925;SDS011;37952;51.938;15.480;2023-07-31T09:34:48;1.60;;;0.80;;
51925;SDS011;37952;51.938;15.480;2023-07-31T09:37:55;1.10;;;0.90;;
51925;SDS011;37952;51.938;15.480;2023-07-31T09:41:00;1.40;;;0.90;;
51925;SDS011;37952;51.938;15.480;2023-07-31T09:44:03;1.20;;;1.00;;
51925;SDS011;37952;51.938;15.480;2023-07-31T09:47:05;1.10;;;1.00;;
51925;SDS011;37952;51.938;15.480;2023-07-31T09:50:08;1.50;;;1.40;;
51925;SDS011;37952;51.938;15.480;2023-07-31T09:53:11;1.40;;;1.30;;
51925;SDS011;37952;51.938;15.480;2023-07-31T09:56:15;1.20;;;1.10;;
51925;SDS011;37952;51.938;15.480;2023-07-31T09:59:20;1.50;;;1.40;;
51925;SDS011;37952;51.938;15.480;2023-07-31T10:02:26;2.40;;;1.60;;
51925;SDS011;37952;51.938;15.480;2023-07-31T10:05:43;4.40;;;1.30;;
51925;SDS011;37952;51.938;15.480;2023-07-31T10:08:51;2.00;;;1.20;;
51925;SDS011;37952;51.938;15.480;2023-07-31T10:12:00;1.40;;;1.30;;
51925;SDS011;37952;51.938;15.480;2023-07-31T10:15:05;1.40;;;1.30;;
51925;SDS011;37952;51.938;15.480;2023-07-31T10:18:08;1.30;;;1.20;;
51925;SDS011;37952;51.938;15.480;2023-07-31T10:21:12;3.00;;;1.30;;
51925;SDS011;37952;51.938;15.480;2023-07-31T10:24:17;4.40;;;1.80;;
51925;SDS011;37952;51.938;15.480;2023-07-31T10:27:20;2.00;;;1.40;;
51925;SDS011;37952;51.938;15.480;2023-07-31T10:30:26;1.40;;;1.30;;
51925;SDS011;37952;51.938;15.480;2023-07-31T10:33:32;1.90;;;1.30;;
51925;SDS011;37952;51.938;15.480;2023-07-31T10:36:35;1.20;;;1.10;;
51925;SDS011;37952;51.938;15.480;2023-07-31T10:39:38;1.90;;;1.50;;
51925;SDS011;37952;51.938;15.480;2023-07-31T10:42:57;1.50;;;1.40;;
51925;SDS011;37952;51.938;15.480;2023-07-31T10:46:00;2.00;;;1.20;;
51925;SDS011;37952;51.938;15.480;2023-07-31T10:49:09;2.30;;;1.50;;
51925;SDS011;37952;51.938;15.480;2023-07-31T10:52:12;1.70;;;1.60;;
51925;SDS011;37952;51.938;15.480;2023-07-31T10:55:25;1.90;;;1.60;;
51925;SDS011;37952;51.938;15.480;2023-07-31T10:58:31;1.90;;;1.60;;
51925;SDS011;37952;51.938;15.480;2023-07-31T11:01:51;1.60;;;1.50;;
51925;SDS011;37952;51.938;15.480;2023-07-31T11:05:16;2.00;;;1.20;;
51925;SDS011;37952;51.938;15.480;2023-07-31T11:08:18;2.50;;;1.50;;
51925;SDS011;37952;51.938;15.480;2023-07-31T11:11:28;2.70;;;1.40;;
51925;SDS011;37952;51.938;15.480;2023-07-31T11:14:31;2.40;;;1.70;;
51925;SDS011;37952;51.938;15.480;2023-07-31T11:17:34;2.10;;;1.20;;
51925;SDS011;37952;51.938;15.480;2023-07-31T11:20:41;1.50;;;1.40;;
51925;SDS011;37952;51.938;15.480;2023-07-31T11:23:45;1.50;;;1.40;;
51925;SDS011;37952;51.938;15.480;2023-07-31T11:30:01;1.40;;;1.30;;
51925;SDS011;37952;51.938;15.480;2023-07-31T11:33:05;2.50;;;1.50;;
51925;SDS011;37952;51.938;15.480;2023-07-31T11:36:18;3.10;;;1.30;;
51925;SDS011;37952;51.938;15.480;2023-07-31T11:39:21;4.10;;;1.40;;
51925;SDS011;37952;51.938;15.480;2023-07-31T11:42:24;1.30;;;1.20;;
51925;SDS011;37952;51.938;15.480;2023-07-31T11:45:27;2.80;;;1.70;;
51925;SDS011;37952;51.938;15.480;2023-07-31T11:48:31;3.00;;;1.40;;
51925;SDS011;37952;51.938;15.480;2023-07-31T11:51:36;2.40;;;1.30;;
51925;SDS011;37952;51.938;15.480;2023-07-31T11:54:39;1.20;;;1.10;;
51925;SDS011;37952;51.938;15.480;2023-07-31T11:57:43;2.80;;;1.30;;
51925;SDS011;37952;51.938;15.480;2023-07-31T12:00:48;1.40;;;1.30;;
51925;SDS011;37952;51.938;15.480;2023-07-31T12:03:52;3.70;;;1.50;;
51925;SDS011;37952;51.938;15.480;2023-07-31T12:06:55;1.90;;;1.40;;
51925;SDS011;37952;51.938;15.480;2023-07-31T12:10:00;2.00;;;1.10;;
51925;SDS011;37952;51.938;15.480;2023-07-31T12:16:07;1.30;;;1.20;;
51925;SDS011;37952;51.938;15.480;2023-07-31T12:19:10;2.80;;;1.50;;
51925;SDS011;37952;51.938;15.480;2023-07-31T12:22:13;1.50;;;1.40;;
51925;SDS011;37952;51.938;15.480;2023-07-31T12:25:17;1.50;;;1.40;;
51925;SDS011;37952;51.938;15.480;2023-07-31T12:28:22;3.70;;;1.60;;
51925;SDS011;37952;51.938;15.480;2023-07-31T12:31:27;1.50;;;1.30;;
51925;SDS011;37952;51.938;15.480;2023-07-31T12:34:31;1.40;;;1.30;;
51925;SDS011;37952;51.938;15.480;2023-07-31T12:37:44;1.60;;;1.50;;
51925;SDS011;37952;51.938;15.480;2023-07-31T12:40:47;2.20;;;1.50;;
51925;SDS011;37952;51.938;15.480;2023-07-31T12:43:50;3.20;;;1.50;;
51925;SDS011;37952;51.938;15.480;2023-07-31T12:46:53;1.70;;;1.60;;
51925;SDS011;37952;51.938;15.480;2023-07-31T12:49:55;1.70;;;1.60;;
51925;SDS011;37952;51.938;15.480;2023-07-31T12:52:58;1.50;;;1.20;;
51925;SDS011;37952;51.938;15.480;2023-07-31T12:56:01;1.50;;;1.40;;
51925;SDS011;37952;51.938;15.480;2023-07-31T12:59:04;1.00;;;1.00;;
51925;SDS011;37952;51.938;15.480;2023-07-31T13:02:07;1.30;;;1.20;;
51925;SDS011;37952;51.938;15.480;2023-07-31T13:05:09;2.20;;;0.90;;
51925;SDS011;37952;51.938;15.480;2023-07-31T13:08:15;1.50;;;1.40;;
51925;SDS011;37952;51.938;15.480;2023-07-31T13:11:20;1.20;;;1.00;;
51925;SDS011;37952;51.938;15.480;2023-07-31T13:14:22;0.90;;;0.90;;
51925;SDS011;37952;51.938;15.480;2023-07-31T13:17:25;1.20;;;1.10;;
51925;SDS011;37952;51.938;15.480;2023-07-31T13:20:29;1.60;;;1.40;;
51925;SDS011;37952;51.938;15.480;2023-07-31T13:23:31;1.30;;;1.20;;
51925;SDS011;37952;51.938;15.480;2023-07-31T13:26:34;2.00;;;1.40;;
51925;SDS011;37952;51.938;15.480;2023-07-31T13:29:38;3.30;;;1.20;;
51925;SDS011;37952;51.938;15.480;2023-07-31T13:32:41;1.30;;;1.20;;
51925;SDS011;37952;51.938;15.480;2023-07-31T13:35:43;1.40;;;1.30;;
51925;SDS011;37952;51.938;15.480;2023-07-31T13:38:46;1.30;;;1.20;;
51925;SDS011;37952;51.938;15.480;2023-07-31T13:41:49;1.30;;;1.10;;
51925;SDS011;37952;51.938;15.480;2023-07-31T13:44:52;1.00;;;0.90;;
51925;SDS011;37952;51.938;15.480;2023-07-31T13:47:55;1.30;;;1.20;;
51925;SDS011;37952;51.938;15.480;2023-07-31T13:50:58;1.20;;;1.10;;
51925;SDS011;37952;51.938;15.480;2023-07-31T13:54:01;1.20;;;1.10;;
51925;SDS011;37952;51.938;15.480;2023-07-31T13:57:04;1.20;;;1.10;;
51925;SDS011;37952;51.938;15.480;2023-07-31T14:00:07;1.40;;;1.30;;
51925;SDS011;37952;51.938;15.480;2023-07-31T14:03:10;1.20;;;1.10;;
51925;SDS011;37952;51.938;15.480;2023-07-31T14:06:13;1.20;;;1.20;;
51925;SDS011;37952;51.938;15.480;2023-07-31T14:09:16;1.30;;;1.20;;
51925;SDS011;37952;51.938;15.480;2023-07-31T14:12:20;1.20;;;1.10;;
51925;SDS011;37952;51.938;15.480;2023-07-31T14:15:43;1.10;;;1.10;;
51925;SDS011;37952;51.938;15.480;2023-07-31T14:18:45;1.60;;;1.30;;
51925;SDS011;37952;51.938;15.480;2023-07-31T14:21:49;1.40;;;1.30;;
51925;SDS011;37952;51.938;15.480;2023-07-31T14:25:11;1.50;;;1.40;;
51925;SDS011;37952;51.938;15.480;2023-07-31T14:28:14;1.60;;;1.40;;
51925;SDS011;37952;51.938;15.480;2023-07-31T14:31:17;2.10;;;1.70;;
51925;SDS011;37952;51.938;15.480;2023-07-31T14:34:20;3.70;;;1.30;;
51925;SDS011;37952;51.938;15.480;2023-07-31T14:37:22;1.50;;;1.40;;
51925;SDS011;37952;51.938;15.480;2023-07-31T14:40:28;3.00;;;1.60;;
51925;SDS011;37952;51.938;15.480;2023-07-31T14:43:31;3.10;;;2.00;;
51925;SDS011;37952;51.938;15.480;2023-07-31T14:46:33;1.90;;;1.70;;
51925;SDS011;37952;51.938;15.480;2023-07-31T14:53:31;1.50;;;1.40;;
51925;SDS011;37952;51.938;15.480;2023-07-31T14:56:33;2.00;;;1.50;;
51925;SDS011;37952;51.938;15.480;2023-07-31T14:59:36;1.40;;;1.30;;
51925;SDS011;37952;51.938;15.480;2023-07-31T15:02:49;1.50;;;1.40;;
51925;SDS011;37952;51.938;15.480;2023-07-31T15:05:52;2.00;;;1.80;;
51925;SDS011;37952;51.938;15.480;2023-07-31T15:08:55;1.40;;;1.30;;
51925;SDS011;37952;51.938;15.480;2023-07-31T15:11:58;1.60;;;1.50;;
51925;SDS011;37952;51.938;15.480;2023-07-31T15:15:00;1.80;;;1.70;;
51925;SDS011;37952;51.938;15.480;2023-07-31T15:18:03;1.30;;;1.20;;
51925;SDS011;37952;51.938;15.480;2023-07-31T15:21:06;4.50;;;1.30;;
51925;SDS011;37952;51.938;15.480;2023-07-31T15:24:11;1.80;;;1.70;;
51925;SDS011;37952;51.938;15.480;2023-07-31T15:27:14;1.70;;;1.50;;
51925;SDS011;37952;51.938;15.480;2023-07-31T15:30:17;3.10;;;1.70;;
51925;SDS011;37952;51.938;15.480;2023-07-31T15:33:20;1.70;;;1.60;;
51925;SDS011;37952;51.938;15.480;2023-07-31T15:36:24;1.70;;;1.60;;
51925;SDS011;37952;51.938;15.480;2023-07-31T15:39:27;1.40;;;1.40;;
51925;SDS011;37952;51.938;15.480;2023-07-31T15:42:29;1.70;;;1.60;;
51925;SDS011;37952;51.938;15.480;2023-07-31T15:45:32;1.50;;;1.40;;
51925;SDS011;37952;51.938;15.480;2023-07-31T15:48:35;1.50;;;1.40;;
51925;SDS011;37952;51.938;15.480;2023-07-31T15:51:38;1.50;;;1.40;;
51925;SDS011;37952;51.938;15.480;2023-07-31T15:54:41;1.50;;;1.40;;
51925;SDS011;37952;51.938;15.480;2023-07-31T15:57:43;1.70;;;1.60;;
51925;SDS011;37952;51.938;15.480;2023-07-31T16:00:46;2.00;;;1.80;;
51925;SDS011;37952;51.938;15.480;2023-07-31T16:03:49;1.80;;;1.70;;
51925;SDS011;37952;51.938;15.480;2023-07-31T16:06:52;2.80;;;1.60;;
51925;SDS011;37952;51.938;15.480;2023-07-31T16:09:55;1.80;;;1.70;;
51925;SDS011;37952;51.938;15.480;2023-07-31T16:12:58;1.60;;;1.50;;
51925;SDS011;37952;51.938;15.480;2023-07-31T16:16:01;2.20;;;1.40;;
51925;SDS011;37952;51.938;15.480;2023-07-31T16:19:04;1.50;;;1.30;;
51925;SDS011;37952;51.938;15.480;2023-07-31T16:22:07;1.60;;;1.50;;
51925;SDS011;37952;51.938;15.480;2023-07-31T16:25:10;1.80;;;1.70;;
51925;SDS011;37952;51.938;15.480;2023-07-31T16:28:13;1.60;;;1.50;;
51925;SDS011;37952;51.938;15.480;2023-07-31T16:31:17;1.50;;;1.40;;
51925;SDS011;37952;51.938;15.480;2023-07-31T16:34:20;1.50;;;1.40;;
51925;SDS011;37952;51.938;15.480;2023-07-31T16:37:23;1.60;;;1.50;;
51925;SDS011;37952;51.938;15.480;2023-07-31T16:40:26;1.60;;;1.50;;
51925;SDS011;37952;51.938;15.480;2023-07-31T16:43:29;1.80;;;1.70;;
51925;SDS011;37952;51.938;15.480;2023-07-31T16:46:32;3.40;;;1.60;;
51925;SDS011;37952;51.938;15.480;2023-07-31T16:49:35;1.50;;;1.40;;
51925;SDS011;37952;51.938;15.480;2023-07-31T16:52:38;1.90;;;1.80;;
51925;SDS011;37952;51.938;15.480;2023-07-31T16:55:40;1.80;;;1.70;;
51925;SDS011;37952;51.938;15.480;2023-07-31T16:58:43;1.60;;;1.50;;
51925;SDS011;37952;51.938;15.480;2023-07-31T17:01:47;1.80;;;1.70;;
51925;SDS011;37952;51.938;15.480;2023-07-31T17:04:50;2.00;;;1.90;;
51925;SDS011;37952;51.938;15.480;2023-07-31T17:07:53;1.60;;;1.50;;
51925;SDS011;37952;51.938;15.480;2023-07-31T17:10:56;1.70;;;1.60;;
51925;SDS011;37952;51.938;15.480;2023-07-31T17:13:58;1.70;;;1.60;;
51925;SDS011;37952;51.938;15.480;2023-07-31T17:17:06;1.70;;;1.60;;
51925;SDS011;37952;51.938;15.480;2023-07-31T17:20:09;2.00;;;1.70;;
51925;SDS011;37952;51.938;15.480;2023-07-31T17:23:12;2.00;;;1.70;;
51925;SDS011;37952;51.938;15.480;2023-07-31T17:26:15;1.80;;;1.70;;
51925;SDS011;37952;51.938;15.480;2023-07-31T17:29:18;1.60;;;1.50;;
51925;SDS011;37952;51.938;15.480;2023-07-31T17:32:22;2.20;;;2.00;;
51925;SDS011;37952;51.938;15.480;2023-07-31T17:35:26;1.70;;;1.40;;
51925;SDS011;37952;51.938;15.480;2023-07-31T17:38:28;2.30;;;1.70;;
51925;SDS011;37952;51.938;15.480;2023-07-31T17:41:31;1.50;;;1.40;;
51925;SDS011;37952;51.938;15.480;2023-07-31T17:44:34;1.60;;;1.50;;
51925;SDS011;37952;51.938;15.480;2023-07-31T17:47:37;2.10;;;1.90;;
51925;SDS011;37952;51.938;15.480;2023-07-31T17:50:40;1.80;;;1.70;;
51925;SDS011;37952;51.938;15.480;2023-07-31T17:53:42;2.10;;;1.70;;
51925;SDS011;37952;51.938;15.480;2023-07-31T17:56:45;1.60;;;1.50;;
51925;SDS011;37952;51.938;15.480;2023-07-31T17:59:48;1.60;;;1.50;;
51925;SDS011;37952;51.938;15.480;2023-07-31T18:02:53;2.00;;;1.80;;
51925;SDS011;37952;51.938;15.480;2023-07-31T18:05:56;2.00;;;1.90;;
51925;SDS011;37952;51.938;15.480;2023-07-31T18:08:59;1.50;;;1.40;;
51925;SDS011;37952;51.938;15.480;2023-07-31T18:12:03;2.10;;;2.00;;
51925;SDS011;37952;51.938;15.480;2023-07-31T18:15:06;1.70;;;1.60;;
51925;SDS011;37952;51.938;15.480;2023-07-31T18:18:09;2.00;;;1.90;;
51925;SDS011;37952;51.938;15.480;2023-07-31T18:21:12;1.90;;;1.80;;
51925;SDS011;37952;51.938;15.480;2023-07-31T18:24:15;1.80;;;1.70;;